Time;durP1;ratioP1;P1;durP2;ratioP2;P2;SDS_P1;SDS_P2;PMS_P1;PMS_P2;Temp;Humidity;BMP_temperature;BMP_pressure;BME280_temperature;BME280_humidity;BME280_pressure;Samples;Min_cycle;Max_cycle;Signal;HPM_P1;HPM_P2
2022/10/06 00:01:52;;;;;;;4.03;2.90;;;;;;;15.17;82.90;99004.97;4188518;28;20098;-72
2022/10/06 00:03:52;;;;;;;5.22;2.80;;;;;;;15.22;82.72;99009.34;4187695;28;20105;-72
2022/10/06 00:05:58;;;;;;;5.40;3.08;;;;;;;15.19;82.72;99019.28;4188213;28;20053;-71
2022/10/06 00:07:59;;;;;;;4.57;3.10;;;;;;;15.15;82.89;99021.28;4188164;28;20048;-71
2022/10/06 00:10:00;;;;;;;4.53;2.85;;;;;;;15.12;83.04;99016.50;4187399;28;20511;-72
2022/10/06 00:12:00;;;;;;;3.28;2.97;;;;;;;15.07;83.43;99025.25;4188275;28;20049;-72
2022/10/06 00:14:00;;;;;;;6.00;3.08;;;;;;;15.13;83.02;99018.06;4188266;28;20048;-72
2022/10/06 00:16:01;;;;;;;3.67;2.60;;;;;;;15.22;82.56;99014.91;4187443;28;20052;-71
2022/10/06 00:18:02;;;;;;;5.20;2.85;;;;;;;15.17;82.79;99025.25;4187908;28;20036;-72
2022/10/06 00:20:03;;;;;;;6.22;2.67;;;;;;;15.16;82.84;99020.09;4187408;28;20032;-72
2022/10/06 00:22:04;;;;;;;5.25;2.90;;;;;;;15.18;82.71;99020.50;4187911;28;20032;-71
2022/10/06 00:24:04;;;;;;;4.20;2.72;;;;;;;15.16;82.69;99017.31;4187950;28;20338;-72
2022/10/06 00:26:08;;;;;;;6.38;3.38;;;;;;;15.16;82.79;99028.47;4187598;28;20085;-71
2022/10/06 00:28:09;;;;;;;5.72;2.67;;;;;;;15.19;82.98;99027.66;4188163;28;20445;-72
2022/10/06 00:30:12;;;;;;;4.75;2.90;;;;;;;15.17;82.98;99025.25;4187467;28;20040;-71
2022/10/06 00:32:12;;;;;;;3.67;2.67;;;;;;;15.25;82.63;99028.88;4186775;28;20020;-72
2022/10/06 00:34:13;;;;;;;3.50;2.58;;;;;;;15.27;82.57;99031.25;4188445;28;20032;-71
2022/10/06 00:36:13;;;;;;;5.20;2.70;;;;;;;15.22;82.82;99026.84;4187644;28;20033;-71
2022/10/06 00:38:16;;;;;;;3.25;2.50;;;;;;;15.18;83.00;99024.06;4187686;28;20025;-72
2022/10/06 00:40:16;;;;;;;4.57;2.72;;;;;;;15.14;83.25;99023.28;4187171;28;20416;-72
2022/10/06 00:42:29;;;;;;;4.78;2.65;;;;;;;15.08;83.57;99022.06;4187907;28;20028;-72
2022/10/06 00:44:29;;;;;;;3.72;2.60;;;;;;;15.10;83.49;99014.09;4187615;28;20048;-72
2022/10/06 00:46:34;;;;;;;4.10;2.53;;;;;;;15.22;82.98;99026.06;4187417;28;20063;-72
2022/10/06 00:48:35;;;;;;;3.92;2.42;;;;;;;15.20;83.25;99031.25;4186928;28;20094;-72
2022/10/06 00:50:37;;;;;;;5.10;2.47;;;;;;;15.18;83.20;99032.44;4187726;28;20052;-71
2022/10/06 00:52:38;;;;;;;6.97;3.20;;;;;;;15.14;83.50;99036.41;4187625;28;20055;-72
2022/10/06 00:54:40;;;;;;;3.93;2.80;;;;;;;15.10;83.59;99035.59;4187290;28;20512;-71
2022/10/06 00:56:40;;;;;;;5.53;3.00;;;;;;;15.07;84.09;99042.78;4186764;28;20286;-72
2022/10/06 00:58:41;;;;;;;5.53;3.13;;;;;;;15.08;84.21;99040.78;4187117;28;20048;-72
2022/10/06 01:00:43;;;;;;;4.82;2.60;;;;;;;15.08;84.49;99043.56;4187598;28;20724;-72
2022/10/06 01:02:49;;;;;;;4.68;2.65;;;;;;;15.11;84.09;99024.06;4187308;28;20036;-72
2022/10/06 01:04:54;;;;;;;6.28;2.40;;;;;;;15.13;84.10;99016.09;4187239;28;20066;-71
2022/10/06 01:06:57;;;;;;;3.30;2.60;;;;;;;15.14;84.16;99019.66;4187060;28;20222;-72
2022/10/06 01:08:58;;;;;;;4.38;2.88;;;;;;;15.10;84.34;99025.25;4187066;28;20048;-72
2022/10/06 01:10:58;;;;;;;5.30;2.50;;;;;;;15.09;84.39;99034.81;4187024;28;20033;-72
2022/10/06 01:13:00;;;;;;;4.70;2.60;;;;;;;15.05;84.49;99047.91;4187361;28;20533;-71
2022/10/06 01:15:00;;;;;;;3.08;2.50;;;;;;;15.02;84.59;99053.50;4186108;28;20334;-71
2022/10/06 01:17:33;;;;;;;3.35;2.58;;;;;;;14.98;84.73;99061.06;4186517;28;20111;-71
2022/10/06 01:19:49;;;;;;;3.50;2.35;;;;;;;15.01;84.59;99066.63;4186963;28;20423;-71
2022/10/06 01:21:52;;;;;;;4.57;2.65;;;;;;;15.08;84.58;99068.66;4187629;28;20051;-72
2022/10/06 01:23:53;;;;;;;4.70;2.83;;;;;;;15.06;84.60;99071.84;4186195;28;20117;-72
2022/10/06 01:25:54;;;;;;;5.18;3.03;;;;;;;15.02;84.77;99073.00;4186728;28;20056;-71
2022/10/06 01:27:55;;;;;;;3.35;2.67;;;;;;;15.03;84.94;99080.16;4187077;28;20040;-71
2022/10/06 01:29:57;;;;;;;6.10;2.83;;;;;;;15.02;84.77;99078.56;4186472;28;20083;-71
2022/10/06 01:31:58;;;;;;;5.30;2.67;;;;;;;15.00;85.19;99078.97;4187024;28;20263;-71
2022/10/06 01:33:59;;;;;;;6.45;2.90;;;;;;;14.99;85.33;99073.81;4186918;28;20720;-71
2022/10/06 01:35:59;;;;;;;4.60;2.53;;;;;;;14.96;85.03;99069.78;4186548;28;20143;-71
2022/10/06 01:37:59;;;;;;;4.65;2.78;;;;;;;14.97;85.23;99076.16;4187135;28;20137;-72
2022/10/06 01:40:00;;;;;;;4.50;2.65;;;;;;;14.93;85.39;99086.50;4185631;28;20040;-72
2022/10/06 01:42:00;;;;;;;4.93;2.83;;;;;;;14.86;85.31;99079.72;4186815;28;20212;-71
2022/10/06 01:44:01;;;;;;;4.57;3.25;;;;;;;14.84;85.65;99084.09;4186171;28;20049;-72
2022/10/06 01:46:01;;;;;;;3.28;2.78;;;;;;;14.81;85.89;99085.69;4186426;28;20043;-71
2022/10/06 01:48:02;;;;;;;2.50;2.30;;;;;;;14.79;85.83;99074.09;4186706;28;20032;-71
2022/10/06 01:50:04;;;;;;;5.55;2.30;;;;;;;14.78;85.95;99069.72;4186355;28;20135;-71
2022/10/06 01:52:04;;;;;;;4.80;2.63;;;;;;;14.85;86.02;99074.53;4187081;28;20432;-72
2022/10/06 01:54:04;;;;;;;5.30;2.70;;;;;;;14.88;85.86;99074.53;4186091;28;20059;-72
2022/10/06 01:56:05;;;;;;;4.75;2.28;;;;;;;14.94;85.63;99085.31;4184902;28;20123;-72
2022/10/06 01:58:05;;;;;;;4.50;2.75;;;;;;;14.95;85.38;99092.47;4186699;28;20402;-72
2022/10/06 02:00:06;;;;;;;3.35;2.58;;;;;;;14.97;85.67;99093.66;4185087;28;20038;-72
2022/10/06 02:02:06;;;;;;;5.35;2.80;;;;;;;14.99;85.51;99096.09;4186537;28;20111;-71
2022/10/06 02:04:07;;;;;;;3.85;2.38;;;;;;;15.00;85.50;99087.34;4186449;28;20060;-71
2022/10/06 02:06:08;;;;;;;3.83;2.53;;;;;;;15.08;84.99;99090.94;4186090;28;20056;-72
2022/10/06 02:08:09;;;;;;;4.65;2.38;;;;;;;15.14;84.35;99094.91;4186534;28;20081;-72
2022/10/06 02:10:09;;;;;;;3.90;2.40;;;;;;;15.25;84.18;99101.34;4185490;28;20039;-72
2022/10/06 02:12:10;;;;;;;3.58;2.33;;;;;;;15.25;84.14;99106.91;4186883;28;20537;-72
2022/10/06 02:14:11;;;;;;;3.38;2.40;;;;;;;15.41;83.22;99101.78;4185999;28;20032;-72
2022/10/06 02:16:12;;;;;;;3.05;2.40;;;;;;;15.46;82.79;99097.78;4186065;28;20079;-72
2022/10/06 02:18:13;;;;;;;3.65;2.28;;;;;;;15.45;82.96;99102.56;4186174;28;20117;-71
2022/10/06 02:20:14;;;;;;;4.72;2.25;;;;;;;15.46;82.76;99108.94;4185240;28;20519;-71
2022/10/06 02:22:15;;;;;;;3.08;2.25;;;;;;;15.49;82.93;99115.75;4185916;28;20089;-71
2022/10/06 02:24:15;;;;;;;2.97;2.28;;;;;;;15.54;82.65;99121.72;4185602;28;20478;-72
2022/10/06 02:26:17;;;;;;;3.50;2.58;;;;;;;15.59;82.57;99121.31;4186254;28;20032;-72
2022/10/06 02:28:18;;;;;;;4.40;2.45;;;;;;;15.54;82.46;99124.50;4185583;28;20032;-72
2022/10/06 02:30:18;;;;;;;3.97;2.20;;;;;;;15.55;82.59;99126.09;4186205;28;20048;-72
2022/10/06 02:32:18;;;;;;;2.78;2.15;;;;;;;15.57;82.67;99128.50;4186386;28;20365;-72
2022/10/06 02:34:19;;;;;;;4.70;2.08;;;;;;;15.59;82.66;99134.47;4186256;28;20127;-72
2022/10/06 02:36:19;;;;;;;3.60;2.30;;;;;;;15.56;82.53;99136.06;4185848;28;20123;-72
2022/10/06 02:38:20;;;;;;;3.38;2.45;;;;;;;15.53;82.72;99138.84;4185745;28;20129;-72
2022/10/06 02:40:21;;;;;;;4.13;2.47;;;;;;;15.54;82.58;99132.88;4186223;28;20044;-72
2022/10/06 02:42:22;;;;;;;3.25;2.33;;;;;;;15.56;82.51;99149.22;4185438;28;20492;-72
2022/10/06 02:44:23;;;;;;;4.15;2.45;;;;;;;15.59;82.45;99151.22;4186039;28;20139;-72
2022/10/06 02:46:24;;;;;;;4.72;2.40;;;;;;;15.65;82.07;99150.47;4186073;28;20511;-71
2022/10/06 02:48:26;;;;;;;4.88;2.28;;;;;;;15.67;81.81;99150.84;4185318;28;20070;-72
2022/10/06 02:50:27;;;;;;;4.93;2.38;;;;;;;15.68;81.79;99158.03;4185787;28;20044;-71
2022/10/06 02:52:35;;;;;;;4.10;2.42;;;;;;;15.75;81.29;99162.84;4185860;28;20047;-71
2022/10/06 02:54:36;;;;;;;4.72;2.30;;;;;;;15.77;81.55;99168.00;4184895;28;20087;-72
2022/10/06 02:56:36;;;;;;;3.40;2.22;;;;;;;15.72;81.83;99170.00;4185526;28;20218;-72
2022/10/06 02:58:38;;;;;;;3.90;2.33;;;;;;;15.68;82.12;99185.13;4185158;28;20141;-72
2022/10/06 03:00:39;;;;;;;6.88;2.60;;;;;;;15.73;81.58;99168.81;4185980;28;20040;-72
2022/10/06 03:02:39;;;;;;;3.47;2.30;;;;;;;15.69;81.78;99178.34;4185743;28;20032;-72
2022/10/06 03:04:39;;;;;;;4.35;2.20;;;;;;;15.68;81.99;99187.91;4185665;28;20123;-71
2022/10/06 03:06:40;;;;;;;4.28;2.40;;;;;;;15.65;82.08;99189.53;4185987;28;20044;-72
2022/10/06 03:08:40;;;;;;;4.55;2.60;;;;;;;15.63;82.17;99197.47;4184754;28;20049;-72
2022/10/06 03:10:41;;;;;;;5.22;2.50;;;;;;;15.64;82.52;99193.50;4186098;28;20238;-71
2022/10/06 03:12:41;;;;;;;3.63;2.95;;;;;;;15.67;82.28;99195.50;4185086;28;20044;-72
2022/10/06 03:14:41;;;;;;;6.22;2.72;;;;;;;15.65;82.13;99189.53;4184737;28;20458;-72
2022/10/06 03:16:42;;;;;;;3.65;2.70;;;;;;;15.60;82.95;99195.44;4185982;28;20296;-71
2022/10/06 03:18:48;;;;;;;5.63;2.50;;;;;;;15.56;83.08;99197.44;4172566;28;20037;-72
2022/10/06 03:20:48;;;;;;;3.42;2.33;;;;;;;15.56;83.04;99186.28;4185340;28;20037;-72
2022/10/06 03:22:52;;;;;;;3.67;2.55;;;;;;;15.56;82.97;99193.84;4185564;28;20051;-72
2022/10/06 03:24:52;;;;;;;3.55;2.63;;;;;;;15.59;82.78;99205.00;4185645;28;20501;-72
2022/10/06 03:26:53;;;;;;;4.43;2.30;;;;;;;15.57;83.17;99201.03;4185960;28;20057;-72
2022/10/06 03:28:54;;;;;;;5.13;2.45;;;;;;;15.55;83.43;99206.97;4184923;28;20040;-72
2022/10/06 03:31:01;;;;;;;5.03;3.00;;;;;;;15.60;82.60;99212.19;4185742;28;20083;-72
2022/10/06 03:33:01;;;;;;;6.90;2.70;;;;;;;15.55;83.15;99211.75;4185553;28;20358;-72
2022/10/06 03:35:02;;;;;;;3.30;2.55;;;;;;;15.52;83.71;99224.50;4186188;28;20090;-71
2022/10/06 03:37:02;;;;;;;5.50;3.10;;;;;;;15.47;83.91;99233.22;4189084;28;20076;-72
2022/10/06 03:39:04;;;;;;;4.80;2.63;;;;;;;15.42;84.14;99244.78;4187327;28;20383;-72
2022/10/06 03:41:08;;;;;;;3.67;2.25;;;;;;;15.49;85.89;99244.03;4188442;28;20052;-71
2022/10/06 03:43:09;;;;;;;3.33;2.45;;;;;;;15.23;88.07;99262.63;4188713;28;20140;-71
2022/10/06 03:45:10;;;;;;;6.43;2.50;;;;;;;15.05;90.82;99267.28;4188802;28;20479;-72
2022/10/06 03:47:10;;;;;;;4.38;2.83;;;;;;;14.94;93.04;99263.63;4188505;28;20036;-72
2022/10/06 03:49:10;;;;;;;4.15;2.30;;;;;;;14.68;95.39;99279.38;4188064;28;20443;-71
2022/10/06 03:51:16;;;;;;;4.03;2.60;;;;;;;14.52;97.14;99271.28;4188849;28;20417;-71
2022/10/06 03:53:17;;;;;;;4.88;2.90;;;;;;;14.50;97.50;99282.03;4188779;28;20090;-72
2022/10/06 03:55:17;;;;;;;3.67;2.65;;;;;;;14.47;97.04;99301.47;4187652;28;20453;-72
2022/10/06 03:57:18;;;;;;;6.60;2.75;;;;;;;14.47;96.57;99305.03;4188540;28;20044;-72
2022/10/06 03:59:18;;;;;;;3.47;2.90;;;;;;;14.50;97.29;99289.56;4188313;28;20036;-72
2022/10/06 04:01:20;;;;;;;4.25;2.75;;;;;;;14.40;97.74;99299.41;4188161;28;20098;-72
2022/10/06 04:03:21;;;;;;;3.65;2.90;;;;;;;14.36;97.71;99301.34;4188549;28;20037;-72
2022/10/06 04:05:21;;;;;;;4.93;2.25;;;;;;;14.29;96.79;99307.63;4188289;28;20370;-72
2022/10/06 04:07:21;;;;;;;8.27;2.42;;;;;;;14.31;94.24;99305.28;4188244;28;20067;-72
2022/10/06 04:09:22;;;;;;;4.47;1.80;;;;;;;14.34;94.26;99320.41;4187252;28;20327;-71
2022/10/06 04:11:31;;;;;;;2.47;1.67;;;;;;;14.29;94.55;99323.53;4188192;28;20358;-72
2022/10/06 04:13:32;;;;;;;3.47;1.95;;;;;;;14.24;94.90;99323.91;4188344;28;20068;-72
2022/10/06 04:15:32;;;;;;;3.30;2.00;;;;;;;14.23;94.86;99337.00;4188073;28;20367;-72
2022/10/06 04:17:32;;;;;;;3.65;2.00;;;;;;;14.26;94.24;99327.91;4188103;28;20053;-71
2022/10/06 04:19:33;;;;;;;3.97;2.42;;;;;;;14.27;94.81;99329.50;4186164;28;20086;-71
2022/10/06 04:21:38;;;;;;;2.10;1.85;;;;;;;14.27;94.69;99351.75;4187842;28;20102;-71
2022/10/06 04:23:38;;;;;;;4.55;2.92;;;;;;;14.21;95.19;99344.13;4187686;28;20492;-72
2022/10/06 04:25:38;;;;;;;2.53;2.30;;;;;;;14.16;95.79;99348.06;4188102;28;20102;-72
2022/10/06 04:27:39;;;;;;;4.63;1.95;;;;;;;14.13;96.01;99356.34;4187847;28;20082;-72
2022/10/06 04:29:39;;;;;;;4.35;1.80;;;;;;;14.21;95.89;99363.59;4187574;28;20040;-72
2022/10/06 04:31:41;;;;;;;2.22;1.55;;;;;;;14.22;94.82;99370.78;4187926;28;20041;-72
2022/10/06 04:33:43;;;;;;;4.30;2.17;;;;;;;14.11;94.74;99378.22;4188188;28;20053;-72
2022/10/06 04:35:43;;;;;;;4.53;1.83;;;;;;;13.97;95.89;99395.53;4187226;28;20047;-72
2022/10/06 04:37:45;;;;;;;3.25;1.60;;;;;;;13.81;97.06;99390.16;4188164;28;20302;-71
2022/10/06 04:39:45;;;;;;;6.68;1.75;;;;;;;13.64;97.94;99419.31;4187121;28;20379;-71
2022/10/06 04:41:46;;;;;;;1.80;1.10;;;;;;;13.46;96.84;99416.28;4188029;28;20135;-72
2022/10/06 04:43:47;;;;;;;4.00;1.30;;;;;;;13.07;96.81;99415.63;4187552;28;20087;-72
2022/10/06 04:45:55;;;;;;;3.22;2.20;;;;;;;12.86;95.52;99460.53;4186885;28;20048;-72
2022/10/06 04:47:55;;;;;;;1.60;0.60;;;;;;;12.25;96.79;99441.94;4188014;28;20476;-72
2022/10/06 04:49:56;;;;;;;1.67;0.60;;;;;;;12.16;95.33;99441.34;4187347;28;20465;-72
2022/10/06 04:51:56;;;;;;;2.28;0.85;;;;;;;11.83;96.21;99447.38;4187598;28;20113;-72
2022/10/06 04:53:56;;;;;;;1.92;0.80;;;;;;;11.79;95.67;99446.47;4186586;28;20036;-72
2022/10/06 04:56:18;;;;;;;2.50;1.48;;;;;;;11.69;95.55;99428.44;4127930;28;20044;-72
2022/10/06 04:58:19;;;;;;;3.50;2.80;;;;;;;11.62;96.33;99421.94;4187190;28;20048;-72
2022/10/06 05:00:22;;;;;;;2.08;1.55;;;;;;;11.68;96.53;99431.59;4187152;28;20094;-72
2022/10/06 05:02:22;;;;;;;3.55;1.13;;;;;;;11.68;97.16;99443.47;4188472;28;20063;-72
2022/10/06 05:04:22;;;;;;;2.15;0.90;;;;;;;11.72;97.19;99440.75;4176230;28;20045;-71
2022/10/06 05:06:28;;;;;;;2.20;1.33;;;;;;;11.74;96.62;99436.47;4186578;28;20045;-72
2022/10/06 05:08:28;;;;;;;0.70;0.70;;;;;;;11.75;96.45;99443.63;4185553;28;20076;-72
2022/10/06 05:10:28;;;;;;;3.47;1.20;;;;;;;11.70;97.14;99451.41;4186849;28;20510;-72
2022/10/06 05:12:29;;;;;;;3.92;1.42;;;;;;;11.71;97.06;99453.03;4187177;28;20171;-71
2022/10/06 05:14:32;;;;;;;1.83;0.95;;;;;;;11.76;96.70;99444.44;4187053;28;20036;-71
2022/10/06 05:16:32;;;;;;;2.83;1.00;;;;;;;11.77;97.43;99463.47;4187228;28;20028;-71
2022/10/06 05:18:34;;;;;;;3.88;1.10;;;;;;;11.84;97.41;99467.63;4186920;28;20040;-71
2022/10/06 05:20:34;;;;;;;1.90;1.33;;;;;;;11.77;97.78;99471.00;4187066;28;20064;-72
2022/10/06 05:22:35;;;;;;;1.38;0.88;;;;;;;11.79;97.77;99475.00;4187178;28;20071;-71
2022/10/06 05:24:35;;;;;;;1.35;0.90;;;;;;;11.82;98.10;99476.25;4187045;28;20447;-71
2022/10/06 05:26:36;;;;;;;4.05;1.23;;;;;;;11.88;97.41;99477.59;4186205;28;20230;-71
2022/10/06 05:28:36;;;;;;;1.50;1.10;;;;;;;11.88;97.41;99482.34;4185063;28;20142;-71
2022/10/06 05:30:36;;;;;;;4.20;1.27;;;;;;;11.86;97.16;99482.72;4187463;28;20052;-71
2022/10/06 05:32:37;;;;;;;2.13;0.80;;;;;;;11.91;96.98;99495.47;4187258;28;20040;-71
2022/10/06 05:34:37;;;;;;;1.55;0.80;;;;;;;11.96;96.65;99492.44;4186815;28;20117;-71
2022/10/06 05:36:37;;;;;;;1.13;0.77;;;;;;;12.01;96.15;99483.84;4186960;28;20072;-71
2022/10/06 05:38:38;;;;;;;3.72;1.30;;;;;;;12.00;96.00;99494.13;4186403;28;20045;-71
2022/10/06 05:40:39;;;;;;;1.30;1.00;;;;;;;12.02;96.08;99500.09;4186429;28;20040;-71
2022/10/06 05:42:39;;;;;;;1.58;1.20;;;;;;;12.00;96.31;99507.19;4186875;28;20074;-71
2022/10/06 05:44:40;;;;;;;5.97;1.35;;;;;;;12.06;95.08;99514.03;4187239;28;20075;-71
2022/10/06 05:46:40;;;;;;;3.10;0.77;;;;;;;12.12;94.13;99518.16;4186904;28;20456;-71
2022/10/06 05:48:40;;;;;;;2.33;0.90;;;;;;;12.07;93.40;99516.44;4186362;28;20064;-71
2022/10/06 05:50:40;;;;;;;1.67;1.00;;;;;;;12.11;92.14;99522.09;4186929;28;20039;-71
2022/10/06 05:52:41;;;;;;;2.05;1.15;;;;;;;12.16;90.76;99529.31;4186276;28;20051;-71
2022/10/06 05:54:41;;;;;;;1.48;0.90;;;;;;;12.18;90.56;99538.09;4185830;28;20080;-71
2022/10/06 05:56:41;;;;;;;1.23;0.80;;;;;;;12.21;90.06;99545.69;4186574;28;20045;-71
2022/10/06 05:58:45;;;;;;;0.82;0.80;;;;;;;12.18;88.92;99560.28;4184605;28;20067;-71
2022/10/06 06:00:45;;;;;;;2.75;1.10;;;;;;;12.19;87.85;99559.91;4186787;28;20661;-71
2022/10/06 06:02:45;;;;;;;1.80;0.88;;;;;;;12.15;87.22;99563.78;4186430;28;20060;-71
2022/10/06 06:04:45;;;;;;;2.03;0.80;;;;;;;12.13;86.04;99572.47;4186819;28;20146;-71
2022/10/06 06:06:47;;;;;;;4.60;0.90;;;;;;;12.04;85.99;99575.44;4186449;28;20051;-71
2022/10/06 06:08:52;;;;;;;3.20;1.50;;;;;;;11.98;86.22;99585.19;4185578;28;20421;-71
2022/10/06 06:10:53;;;;;;;6.88;4.30;;;;;;;11.96;86.06;99592.28;4186423;28;20446;-71
2022/10/06 06:12:53;;;;;;;5.78;3.25;;;;;;;11.94;85.24;99584.31;4186066;28;20043;-71
2022/10/06 06:17:12;;;;;;;3.47;1.20;;;;;;;11.86;85.20;99613.03;4186173;28;20070;-71
2022/10/06 06:19:13;;;;;;;2.22;1.55;;;;;;;11.88;84.65;99613.47;4184445;28;20481;-71
2022/10/06 06:21:13;;;;;;;4.70;1.50;;;;;;;11.85;82.45;99614.22;4186187;28;20044;-71
2022/10/06 06:23:13;;;;;;;4.13;1.55;;;;;;;11.90;80.74;99613.91;4186692;28;20820;-71
2022/10/06 06:25:14;;;;;;;2.78;1.30;;;;;;;11.91;80.45;99623.84;4186237;28;20767;-71
2022/10/06 06:27:14;;;;;;;3.83;1.08;;;;;;;11.90;78.41;99632.53;4186220;28;20388;-71
2022/10/06 06:29:14;;;;;;;3.25;1.20;;;;;;;11.86;77.48;99642.75;4185965;28;20047;-71
2022/10/06 06:31:19;;;;;;;3.40;1.20;;;;;;;11.83;76.48;99635.91;4186268;28;20057;-71
2022/10/06 06:33:21;;;;;;;2.85;2.40;;;;;;;11.90;74.66;99654.72;4186039;28;20284;-71
2022/10/06 06:35:21;;;;;;;2.35;1.23;;;;;;;11.78;75.06;99650.03;4186175;28;20143;-71
2022/10/06 06:37:22;;;;;;;3.53;1.50;;;;;;;11.73;74.16;99658.63;4186213;28;20515;-71
2022/10/06 06:39:24;;;;;;;1.88;1.20;;;;;;;11.73;73.87;99656.66;4185308;28;20304;-71
2022/10/06 06:41:27;;;;;;;2.85;1.40;;;;;;;11.74;73.35;99663.00;4186200;28;20036;-71
2022/10/06 06:43:28;;;;;;;4.80;1.70;;;;;;;11.78;73.74;99658.34;4186346;28;20045;-71
2022/10/06 06:45:29;;;;;;;5.70;1.60;;;;;;;11.82;73.33;99662.03;4186062;28;20067;-71
2022/10/06 06:47:29;;;;;;;8.35;1.75;;;;;;;11.88;72.94;99663.41;4186050;28;20209;-71
2022/10/06 06:49:30;;;;;;;3.40;1.50;;;;;;;11.88;72.51;99671.72;4185301;28;20591;-71
2022/10/06 06:51:33;;;;;;;6.88;1.60;;;;;;;11.87;73.03;99675.66;4186526;28;20028;-71
2022/10/06 06:53:33;;;;;;;4.72;1.40;;;;;;;11.89;73.69;99678.06;4185497;28;20495;-71
2022/10/06 06:55:34;;;;;;;4.05;1.45;;;;;;;11.90;73.95;99683.25;4186173;28;20359;-71
2022/10/06 06:57:34;;;;;;;6.43;1.73;;;;;;;11.95;73.33;99682.19;4186143;28;20277;-71
2022/10/06 06:59:34;;;;;;;4.30;1.70;;;;;;;12.00;74.28;99699.38;4185434;28;20040;-71
2022/10/06 07:01:35;;;;;;;3.28;1.52;;;;;;;11.94;74.84;99697.22;4186185;28;20165;-71
2022/10/06 07:03:38;;;;;;;4.60;1.60;;;;;;;11.99;74.50;99703.28;4185426;28;20083;-71
2022/10/06 07:05:38;;;;;;;5.68;1.90;;;;;;;12.00;73.83;99707.69;4186001;28;20071;-71
2022/10/06 07:07:39;;;;;;;4.68;1.60;;;;;;;12.01;74.31;99697.41;4186057;28;20040;-71
2022/10/06 07:09:39;;;;;;;2.78;1.30;;;;;;;12.01;74.53;99714.03;4186978;28;20082;-71
2022/10/06 07:11:39;;;;;;;6.78;2.78;;;;;;;12.07;74.94;99716.16;4189515;28;20091;-71
2022/10/06 07:13:41;;;;;;;7.13;1.80;;;;;;;12.09;75.26;99718.59;4189097;28;20049;-71
2022/10/06 07:25:06;;;;;;;4.60;1.48;;;;;;;12.16;76.71;99723.50;4188729;28;20042;-71
2022/10/06 07:27:07;;;;;;;3.47;1.67;;;;;;;12.31;75.73;99737.38;4189228;28;20051;-71
2022/10/06 07:29:07;;;;;;;3.25;1.65;;;;;;;12.33;75.35;99734.25;4188455;28;20044;-71
2022/10/06 07:31:08;;;;;;;2.50;1.23;;;;;;;12.33;75.57;99734.25;4188948;28;20044;-71
2022/10/06 07:33:08;;;;;;;4.38;1.35;;;;;;;12.37;75.50;99747.06;4188982;28;20135;-71
2022/10/06 07:35:08;;;;;;;3.20;1.50;;;;;;;12.38;73.53;99747.84;4188595;28;20040;-71
2022/10/06 07:37:09;;;;;;;4.38;1.40;;;;;;;12.38;75.76;99762.53;4188722;28;20157;-71
2022/10/06 07:39:09;;;;;;;8.10;2.03;;;;;;;12.41;74.97;99760.19;4188277;28;20465;-71
2022/10/06 07:41:09;;;;;;;4.22;1.73;;;;;;;12.44;75.43;99760.31;4189197;28;20037;-71
2022/10/06 07:43:10;;;;;;;6.03;1.95;;;;;;;12.47;75.67;99767.09;4188790;28;20040;-71
2022/10/06 07:47:33;;;;;;;3.15;1.58;;;;;;;12.63;75.43;99773.44;4188353;28;20141;-71
2022/10/06 07:49:34;;;;;;;4.47;1.50;;;;;;;12.61;75.95;99776.56;4187934;28;20063;-71
2022/10/06 07:51:34;;;;;;;1.98;1.55;;;;;;;12.64;75.01;99764.75;4188167;28;20384;-71
2022/10/06 07:53:36;;;;;;;4.72;1.55;;;;;;;12.70;74.25;99773.63;4188722;28;20396;-71
2022/10/06 07:55:38;;;;;;;3.37;1.40;;;;;;;12.77;73.41;99778.53;4188681;28;20609;-71
2022/10/06 07:57:38;;;;;;;4.03;1.73;;;;;;;12.76;73.93;99772.19;4188064;28;20040;-71
2022/10/06 07:59:40;;;;;;;2.28;1.52;;;;;;;12.79;73.16;99773.41;4187674;28;20031;-71
2022/10/06 08:01:42;;;;;;;4.00;1.80;;;;;;;12.75;74.16;99780.88;4187905;28;20040;-71
2022/10/06 08:03:45;;;;;;;5.95;1.65;;;;;;;12.75;73.10;99778.91;4188440;28;20095;-71
2022/10/06 08:05:56;;;;;;;4.43;1.77;;;;;;;12.72;74.69;99778.78;4188509;28;20037;-71
2022/10/06 08:07:57;;;;;;;2.40;1.38;;;;;;;12.72;73.05;99793.50;4188521;28;20032;-71
2022/10/06 08:09:57;;;;;;;3.10;1.85;;;;;;;12.79;73.05;99787.28;4187724;28;20426;-71
2022/10/06 08:12:31;;;;;;;5.38;2.45;;;;;;;12.85;72.96;99783.88;4188535;28;20127;-71
2022/10/06 08:14:17;;;;;;;3.78;1.70;;;;;;;12.91;73.04;99796.34;4188148;28;20735;-71
2022/10/06 08:16:20;;;;;;;5.22;1.90;;;;;;;12.90;71.34;99797.47;4188021;28;20063;-71
2022/10/06 08:18:24;;;;;;;4.97;1.67;;;;;;;12.97;71.11;99805.19;4186516;28;21156;-71
2022/10/06 08:20:26;;;;;;;5.30;1.88;;;;;;;12.99;71.03;99805.66;4188084;28;20412;-71
2022/10/06 08:22:28;;;;;;;5.50;2.28;;;;;;;12.99;70.81;99818.69;4188190;28;20045;-71
2022/10/06 08:24:29;;;;;;;4.03;2.20;;;;;;;13.03;70.36;99823.19;4188012;28;20051;-71
2022/10/06 08:26:30;;;;;;;9.57;3.35;;;;;;;13.01;69.15;99821.94;4188215;28;20047;-71
2022/10/06 08:28:31;;;;;;;4.88;2.70;;;;;;;12.91;70.08;99829.66;4187918;28;20037;-71
2022/10/06 08:30:33;;;;;;;4.15;2.13;;;;;;;12.81;69.94;99837.72;4188413;28;20044;-71
2022/10/06 08:32:33;;;;;;;3.15;1.80;;;;;;;12.85;69.64;99836.66;4187790;28;20063;-71
2022/10/06 08:34:35;;;;;;;4.47;2.10;;;;;;;12.75;69.27;99836.41;4187698;28;20400;-71
2022/10/06 08:36:35;;;;;;;6.20;2.47;;;;;;;12.75;69.30;99837.22;4188052;28;20041;-71
2022/10/06 08:38:37;;;;;;;5.00;2.53;;;;;;;12.82;69.48;99829.03;4187514;28;20055;-71
2022/10/06 08:40:40;;;;;;;6.22;2.10;;;;;;;12.76;69.41;99832.47;4187779;28;20581;-71
2022/10/06 08:42:48;;;;;;;6.97;2.42;;;;;;;12.71;68.78;99827.97;4187818;28;20045;-71
2022/10/06 08:44:57;;;;;;;5.18;2.15;;;;;;;12.78;68.61;99833.72;4187730;28;20043;-71
2022/10/06 08:47:04;;;;;;;5.72;1.95;;;;;;;12.87;68.25;99837.09;4187523;28;20261;-71
2022/10/06 08:49:08;;;;;;;5.88;2.15;;;;;;;12.95;67.88;99832.53;4186862;28;20050;-71
2022/10/06 08:51:30;;;;;;;4.90;2.17;;;;;;;13.05;66.60;99833.94;4187930;28;20029;-71
2022/10/06 08:53:58;;;;;;;5.18;1.67;;;;;;;13.13;67.02;99838.47;4187756;28;20363;-71
2022/10/06 08:56:19;;;;;;;4.05;2.17;;;;;;;13.25;66.68;99838.41;4187929;28;20207;-71
2022/10/06 08:58:34;;;;;;;3.13;2.00;;;;;;;13.44;65.47;99845.97;4186960;28;20091;-71
2022/10/06 09:00:36;;;;;;;5.30;2.03;;;;;;;13.63;65.87;99859.06;4187111;28;20448;-71
2022/10/06 09:02:41;;;;;;;4.93;2.22;;;;;;;13.67;65.60;99855.22;4188094;28;20119;-71
2022/10/06 09:04:41;;;;;;;6.50;2.17;;;;;;;13.76;64.23;99855.00;4187860;28;20384;-71
2022/10/06 09:07:02;;;;;;;3.55;1.80;;;;;;;13.64;62.65;99866.25;4187692;28;20511;-71
2022/10/06 09:09:15;;;;;;;3.35;2.10;;;;;;;13.51;63.24;99862.81;4186851;28;20426;-71
2022/10/06 09:11:44;;;;;;;3.35;2.13;;;;;;;13.58;64.38;99871.31;4187432;28;20555;-71
2022/10/06 09:13:56;;;;;;;14.07;2.92;;;;;;;13.65;63.60;99860.34;4186997;28;20125;-71
2022/10/06 09:16:07;;;;;;;6.80;2.47;;;;;;;13.71;63.71;99861.63;4187137;28;20040;-71
2022/10/06 09:18:09;;;;;;;3.05;1.77;;;;;;;13.76;63.48;99875.25;4187131;28;20045;-71
2022/10/06 09:20:29;;;;;;;5.65;1.88;;;;;;;13.70;63.17;99870.34;4186491;28;20032;-71
2022/10/06 09:22:31;;;;;;;5.40;2.28;;;;;;;13.80;65.15;99871.75;4186373;28;20450;-71
2022/10/06 09:24:44;;;;;;;3.95;1.70;;;;;;;13.85;63.62;99869.47;4187437;28;20033;-71
2022/10/06 09:26:48;;;;;;;3.67;1.88;;;;;;;13.73;63.51;99856.50;4187378;28;20040;-71
2022/10/06 09:28:50;;;;;;;5.13;1.77;;;;;;;13.83;64.97;99869.06;4185125;28;20036;-71
2022/10/06 09:30:52;;;;;;;4.13;2.08;;;;;;;13.82;63.95;99870.22;4187172;28;20140;-71
2022/10/06 09:33:01;;;;;;;5.13;1.92;;;;;;;13.74;64.45;99876.81;4185554;28;20036;-71
2022/10/06 09:35:22;;;;;;;5.70;2.30;;;;;;;13.74;62.67;99877.63;4187334;28;20575;-71
2022/10/06 09:37:22;;;;;;;2.67;1.58;;;;;;;13.78;61.47;99880.47;4187022;28;20040;-71
2022/10/06 09:39:28;;;;;;;3.45;1.60;;;;;;;13.63;62.04;99875.75;4186035;28;20409;-71
2022/10/06 09:41:36;;;;;;;4.30;1.80;;;;;;;13.55;62.21;99877.56;4187197;28;20090;-71
2022/10/06 09:43:38;;;;;;;6.63;2.20;;;;;;;13.69;62.18;99883.47;4186622;28;20041;-71
2022/10/06 09:45:38;;;;;;;4.18;1.80;;;;;;;13.70;61.83;99876.72;4186963;28;20635;-71
2022/10/06 09:47:44;;;;;;;2.95;1.70;;;;;;;13.64;60.99;99880.16;4186840;28;20043;-71
2022/10/06 09:50:03;;;;;;;6.32;1.73;;;;;;;13.65;60.32;99881.75;4186290;28;20355;-71
2022/10/06 09:52:14;;;;;;;2.38;1.60;;;;;;;13.71;61.99;99881.09;4185188;28;20055;-71